Time;durP1;ratioP1;P1;durP2;ratioP2;P2;SDS_P1;SDS_P2;PMS_P1;PMS_P2;Temp;Humidity;BMP_temperature;BMP_pressure;BME280_temperature;BME280_humidity;BME280_pressure;Samples;Min_cycle;Max_cycle;Signal;HPM_P1;HPM_P2
2024/01/26 00:00:38;;;;;;;12.00;10.10;;;11.50;99.90;;;;;;4993997;28;20487;-69
2024/01/26 00:03:04;;;;;;;13.27;10.00;;;11.40;99.90;;;;;;4989670;28;20213;-69
2024/01/26 00:05:30;;;;;;;10.40;8.87;;;11.50;99.90;;;;;;4998134;28;20181;-69
2024/01/26 00:07:56;;;;;;;10.90;9.20;;;11.50;99.90;;;;;;4996047;28;20426;-69
2024/01/26 00:10:21;;;;;;;13.10;9.63;;;11.50;99.90;;;;;;4988963;28;20392;-69
2024/01/26 00:12:47;;;;;;;10.40;8.80;;;11.50;99.90;;;;;;4995425;28;20491;-69
2024/01/26 00:15:14;;;;;;;12.77;9.47;;;11.60;99.90;;;;;;4999408;28;20280;-69
2024/01/26 00:17:39;;;;;;;12.17;8.90;;;11.60;99.90;;;;;;5000410;28;20907;-69
2024/01/26 00:20:06;;;;;;;10.50;8.80;;;11.60;99.90;;;;;;4997888;28;20436;-69
2024/01/26 00:22:31;;;;;;;9.80;7.90;;;11.60;99.90;;;;;;4997761;28;20530;-69
2024/01/26 00:24:57;;;;;;;10.13;8.43;;;11.70;99.90;;;;;;4997447;28;20460;-70
2024/01/26 00:27:22;;;;;;;13.47;7.97;;;11.70;99.90;;;;;;4997311;28;20197;-69
2024/01/26 00:29:48;;;;;;;9.00;8.00;;;11.70;99.90;;;;;;4995942;28;20571;-69
2024/01/26 00:32:13;;;;;;;13.03;9.27;;;11.70;99.90;;;;;;4999399;28;20576;-69
2024/01/26 00:34:39;;;;;;;11.77;9.47;;;11.60;99.90;;;;;;4999508;28;20672;-69
2024/01/26 00:37:05;;;;;;;13.13;10.40;;;11.70;99.90;;;;;;4999913;28;20194;-70
2024/01/26 00:39:30;;;;;;;11.60;8.77;;;11.80;99.90;;;;;;5011106;28;20677;-69
2024/01/26 00:41:56;;;;;;;11.20;9.13;;;11.80;99.90;;;;;;4996382;28;20194;-69
2024/01/26 00:44:22;;;;;;;10.40;8.50;;;11.80;99.90;;;;;;4993883;28;20221;-69
2024/01/26 00:46:47;;;;;;;10.93;9.37;;;11.80;99.90;;;;;;4997465;28;20194;-70
2024/01/26 00:49:13;;;;;;;11.73;9.40;;;11.80;99.90;;;;;;4998124;28;20213;-69
2024/01/26 00:51:38;;;;;;;10.57;9.53;;;11.80;99.90;;;;;;4988699;28;20189;-69
2024/01/26 00:54:04;;;;;;;10.57;9.47;;;11.80;99.90;;;;;;5000010;28;20259;-69
2024/01/26 00:56:30;;;;;;;11.83;10.50;;;11.70;99.90;;;;;;4994030;28;20237;-69
2024/01/26 00:58:56;;;;;;;13.83;10.60;;;11.70;99.90;;;;;;4999458;28;20263;-71
2024/01/26 01:01:22;;;;;;;11.37;9.87;;;11.70;99.90;;;;;;4993390;28;20516;-69
2024/01/26 01:03:48;;;;;;;12.80;10.33;;;11.70;99.90;;;;;;5001945;28;20622;-69
2024/01/26 01:06:14;;;;;;;12.90;10.90;;;11.70;99.90;;;;;;4994517;28;20518;-69
2024/01/26 01:08:39;;;;;;;12.30;10.40;;;11.70;99.90;;;;;;4996638;28;20797;-69
2024/01/26 01:11:06;;;;;;;12.80;10.63;;;11.70;99.90;;;;;;4993661;28;20177;-69
2024/01/26 01:13:31;;;;;;;12.20;10.30;;;11.60;99.90;;;;;;4996534;28;20205;-69
2024/01/26 01:15:57;;;;;;;13.80;9.97;;;11.60;99.90;;;;;;4996078;28;20502;-69
2024/01/26 01:18:22;;;;;;;11.80;9.43;;;11.70;99.90;;;;;;4999013;28;20185;-69
2024/01/26 01:20:48;;;;;;;11.30;9.80;;;11.60;99.90;;;;;;4991942;28;20252;-69
2024/01/26 01:23:15;;;;;;;10.20;8.63;;;11.60;99.90;;;;;;4994369;28;20185;-69
2024/01/26 01:25:41;;;;;;;11.10;9.33;;;11.60;99.90;;;;;;4999560;28;20192;-68
2024/01/26 01:28:06;;;;;;;11.27;9.60;;;11.50;99.90;;;;;;4991956;28;20508;-70
2024/01/26 01:30:32;;;;;;;9.17;8.00;;;11.60;99.90;;;;;;4992604;28;20568;-69
2024/01/26 01:32:58;;;;;;;13.27;8.90;;;11.60;99.90;;;;;;4998149;28;20193;-69
2024/01/26 01:35:23;;;;;;;9.60;8.40;;;11.50;99.90;;;;;;4996980;28;20741;-68
2024/01/26 01:37:49;;;;;;;9.23;8.17;;;11.50;99.90;;;;;;4997202;28;20552;-69
2024/01/26 01:40:14;;;;;;;10.90;7.93;;;11.50;99.90;;;;;;4994867;28;20205;-68
2024/01/26 01:42:41;;;;;;;11.97;7.70;;;11.50;99.90;;;;;;4994193;28;20230;-69
2024/01/26 01:45:13;;;;;;;10.03;7.40;;;11.50;99.90;;;;;;4992656;28;20221;-69
2024/01/26 01:47:38;;;;;;;9.33;7.40;;;11.50;99.90;;;;;;4997519;28;20477;-69
2024/01/26 01:50:06;;;;;;;10.43;7.27;;;11.50;99.90;;;;;;4999924;28;20589;-69
2024/01/26 01:52:36;;;;;;;6.93;6.10;;;11.50;99.90;;;;;;4990502;28;20328;-69
2024/01/26 01:55:03;;;;;;;11.43;6.70;;;11.40;99.90;;;;;;4994684;28;20443;-69
2024/01/26 01:57:31;;;;;;;7.27;6.30;;;11.50;99.90;;;;;;4993385;28;20427;-69
2024/01/26 01:59:56;;;;;;;7.20;5.37;;;11.50;99.90;;;;;;4991993;28;20449;-69
2024/01/26 02:02:24;;;;;;;5.77;5.17;;;11.50;99.90;;;;;;4996183;28;20789;-69
2024/01/26 02:04:50;;;;;;;5.80;4.90;;;11.50;99.90;;;;;;4996029;28;20803;-69
2024/01/26 02:07:16;;;;;;;6.67;5.20;;;11.50;99.90;;;;;;4995467;28;20439;-69
2024/01/26 02:09:41;;;;;;;4.83;4.37;;;11.60;99.90;;;;;;4992953;28;20476;-69
2024/01/26 02:12:07;;;;;;;6.27;4.50;;;11.60;99.90;;;;;;4990826;28;20221;-69
2024/01/26 02:14:33;;;;;;;4.57;4.17;;;11.60;99.90;;;;;;4995523;28;20212;-69
2024/01/26 02:17:01;;;;;;;4.80;3.70;;;11.60;99.90;;;;;;4995221;28;20635;-69
2024/01/26 02:19:27;;;;;;;4.93;4.40;;;11.50;99.90;;;;;;4990822;28;20201;-69
2024/01/26 02:21:54;;;;;;;5.47;4.13;;;11.60;99.90;;;;;;4993463;28;20973;-69
2024/01/26 02:24:20;;;;;;;4.27;3.50;;;11.60;99.90;;;;;;4994127;28;20491;-69
2024/01/26 02:26:45;;;;;;;4.27;3.47;;;11.60;99.90;;;;;;4991150;28;20500;-70
2024/01/26 02:29:11;;;;;;;7.67;3.53;;;11.60;99.90;;;;;;4995351;28;20484;-69
2024/01/26 02:31:37;;;;;;;5.97;3.60;;;11.60;99.90;;;;;;4990195;28;20280;-69
2024/01/26 02:34:03;;;;;;;3.17;2.70;;;11.50;99.90;;;;;;4993440;28;21135;-69
2024/01/26 02:36:31;;;;;;;3.70;2.97;;;11.60;99.90;;;;;;5007698;28;20581;-69
2024/01/26 02:38:56;;;;;;;2.57;2.20;;;11.60;99.90;;;;;;4997816;28;20897;-69
2024/01/26 02:41:22;;;;;;;3.87;2.50;;;11.60;99.90;;;;;;4993336;28;20443;-69
2024/01/26 02:43:48;;;;;;;4.77;2.43;;;11.50;99.90;;;;;;4992247;28;21289;-69
2024/01/26 02:46:13;;;;;;;2.73;2.00;;;11.50;99.90;;;;;;4991641;28;20197;-69
2024/01/26 02:48:39;;;;;;;3.17;2.20;;;11.50;99.90;;;;;;4995075;28;20428;-69
2024/01/26 02:51:05;;;;;;;3.60;2.10;;;11.60;99.90;;;;;;4993307;28;20186;-69
2024/01/26 02:53:31;;;;;;;4.83;2.60;;;11.60;99.90;;;;;;4988812;28;20240;-69
2024/01/26 02:55:57;;;;;;;2.63;1.80;;;11.70;99.90;;;;;;4990451;28;20946;-69
2024/01/26 02:58:23;;;;;;;3.50;1.70;;;11.70;99.90;;;;;;4996337;28;20759;-69
2024/01/26 03:00:49;;;;;;;3.53;1.70;;;11.80;99.90;;;;;;4999312;28;20428;-69
2024/01/26 03:03:15;;;;;;;2.97;1.90;;;11.80;99.90;;;;;;4994392;28;20185;-69
2024/01/26 03:05:40;;;;;;;3.07;2.07;;;11.80;99.90;;;;;;4997207;28;20204;-69
2024/01/26 03:08:06;;;;;;;3.43;2.57;;;11.80;99.90;;;;;;4999699;28;20663;-69
2024/01/26 03:10:32;;;;;;;2.67;2.20;;;11.90;99.90;;;;;;4997379;28;20735;-69
2024/01/26 03:12:58;;;;;;;3.97;2.43;;;11.90;99.90;;;;;;4994903;28;20428;-69
2024/01/26 03:15:23;;;;;;;2.77;1.97;;;11.90;99.90;;;;;;4994471;28;20671;-69
2024/01/26 03:17:49;;;;;;;3.20;1.97;;;11.90;99.90;;;;;;4995235;28;20178;-69
2024/01/26 03:20:14;;;;;;;2.80;2.20;;;11.80;99.90;;;;;;5009500;28;20618;-69
2024/01/26 03:22:40;;;;;;;3.23;1.90;;;11.90;99.90;;;;;;4994640;28;20879;-69
2024/01/26 03:25:07;;;;;;;2.50;2.00;;;11.90;99.90;;;;;;4999035;28;20205;-69
2024/01/26 03:27:33;;;;;;;3.40;2.00;;;11.90;99.90;;;;;;4993107;28;20420;-69
2024/01/26 03:29:58;;;;;;;3.50;1.80;;;11.90;99.90;;;;;;5006531;28;20464;-69
2024/01/26 03:32:25;;;;;;;2.60;1.80;;;11.90;99.90;;;;;;4997025;28;20256;-69
2024/01/26 03:34:50;;;;;;;4.13;1.93;;;11.90;99.90;;;;;;4990136;28;20197;-69
2024/01/26 03:37:17;;;;;;;2.17;1.70;;;11.90;99.90;;;;;;4994013;28;20771;-69
2024/01/26 03:39:42;;;;;;;3.17;1.97;;;11.90;99.90;;;;;;4988763;28;20598;-69
2024/01/26 03:42:10;;;;;;;3.37;2.00;;;11.90;99.90;;;;;;4994629;28;20437;-69
2024/01/26 03:44:36;;;;;;;2.30;1.90;;;11.90;99.90;;;;;;4992655;28;20212;-70
2024/01/26 03:47:02;;;;;;;3.60;2.23;;;11.90;99.90;;;;;;4995429;28;20949;-69
2024/01/26 03:49:28;;;;;;;2.87;2.00;;;11.90;99.90;;;;;;4990916;28;20558;-69
2024/01/26 03:51:53;;;;;;;7.10;4.40;;;11.90;99.90;;;;;;5009701;28;20240;-69
2024/01/26 03:54:19;;;;;;;5.73;2.23;;;11.90;99.90;;;;;;4995047;28;20562;-69
2024/01/26 03:56:44;;;;;;;5.43;2.30;;;11.80;99.90;;;;;;4997450;28;20590;-69
2024/01/26 03:59:10;;;;;;;4.33;2.07;;;11.80;99.90;;;;;;4999852;28;20571;-69
2024/01/26 04:01:36;;;;;;;4.33;2.57;;;11.80;99.90;;;;;;4997518;28;20185;-69
2024/01/26 04:04:01;;;;;;;2.43;1.60;;;11.80;99.90;;;;;;4996969;28;20239;-69
2024/01/26 04:06:27;;;;;;;3.07;1.90;;;11.70;99.90;;;;;;4996317;28;20189;-69
2024/01/26 04:08:54;;;;;;;2.50;1.80;;;11.70;99.90;;;;;;4994890;28;20221;-69
2024/01/26 04:11:20;;;;;;;3.70;1.93;;;11.60;99.90;;;;;;4995609;28;20185;-69
2024/01/26 04:13:46;;;;;;;3.00;2.10;;;11.70;99.90;;;;;;4999288;28;20447;-69
2024/01/26 04:16:11;;;;;;;2.63;2.00;;;11.60;99.90;;;;;;4997713;28;20191;-69
2024/01/26 04:18:37;;;;;;;3.90;2.03;;;11.70;99.90;;;;;;5001972;28;20181;-69
2024/01/26 04:21:03;;;;;;;2.70;1.53;;;11.70;99.90;;;;;;5008894;28;20598;-69
2024/01/26 04:23:28;;;;;;;4.53;2.23;;;11.50;99.90;;;;;;4997190;28;20213;-69
2024/01/26 04:25:54;;;;;;;2.87;1.80;;;11.30;99.90;;;;;;4997706;28;20279;-69
2024/01/26 04:28:19;;;;;;;3.40;1.73;;;11.30;99.90;;;;;;4996573;28;20197;-69
2024/01/26 04:30:45;;;;;;;2.50;1.43;;;11.20;99.90;;;;;;4995878;28;20213;-69
2024/01/26 04:33:10;;;;;;;2.13;1.40;;;11.20;99.90;;;;;;4997026;28;20522;-69
2024/01/26 04:35:36;;;;;;;2.47;1.83;;;11.10;99.90;;;;;;4996590;28;20189;-69
2024/01/26 04:38:02;;;;;;;2.40;1.60;;;11.00;99.90;;;;;;4998082;28;20269;-69
2024/01/26 04:40:27;;;;;;;2.10;1.63;;;11.00;99.90;;;;;;4993099;28;20201;-69
2024/01/26 04:42:54;;;;;;;2.63;2.00;;;10.90;99.90;;;;;;5010951;28;20193;-69
2024/01/26 04:45:19;;;;;;;4.40;2.20;;;11.00;99.90;;;;;;4995579;28;20205;-69
2024/01/26 04:47:45;;;;;;;3.13;1.57;;;11.00;99.90;;;;;;4998070;28;20797;-69
2024/01/26 04:50:11;;;;;;;5.30;1.93;;;11.00;99.90;;;;;;5000914;28;20835;-69
2024/01/26 04:52:36;;;;;;;2.10;1.70;;;11.00;99.90;;;;;;4993596;28;20181;-70
2024/01/26 04:55:04;;;;;;;3.17;2.10;;;11.00;99.90;;;;;;4998794;28;20513;-69
2024/01/26 04:57:29;;;;;;;5.20;2.07;;;10.90;99.90;;;;;;4999661;28;20185;-70
2024/01/26 04:59:55;;;;;;;2.57;1.90;;;10.90;99.90;;;;;;4993201;28;20441;-69
2024/01/26 05:02:21;;;;;;;2.97;1.73;;;11.00;99.90;;;;;;4996501;28;20205;-69
2024/01/26 05:04:46;;;;;;;4.80;2.17;;;11.00;99.90;;;;;;4996522;28;20618;-69
2024/01/26 05:07:12;;;;;;;3.07;2.20;;;11.00;99.90;;;;;;4996087;28;20189;-70
2024/01/26 05:09:38;;;;;;;3.10;1.90;;;11.00;99.90;;;;;;4997202;28;20217;-70
2024/01/26 05:12:04;;;;;;;2.73;2.00;;;10.90;99.90;;;;;;4995533;28;20425;-70
2024/01/26 05:14:30;;;;;;;3.57;1.77;;;11.10;99.90;;;;;;4999963;28;20209;-69
2024/01/26 05:16:55;;;;;;;8.63;2.00;;;11.20;99.90;;;;;;4995163;28;21016;-69
2024/01/26 05:19:21;;;;;;;2.80;2.30;;;11.20;99.90;;;;;;4998362;28;20185;-69
2024/01/26 05:21:46;;;;;;;3.07;1.93;;;11.20;99.90;;;;;;4996034;28;20267;-70
2024/01/26 05:24:12;;;;;;;3.10;2.20;;;11.20;99.90;;;;;;4997521;28;20201;-69
2024/01/26 05:26:38;;;;;;;3.73;1.90;;;11.30;99.90;;;;;;4996270;28;20653;-70
2024/01/26 05:29:06;;;;;;;4.87;2.23;;;11.40;99.90;;;;;;5002977;28;20212;-70
2024/01/26 05:31:32;;;;;;;3.60;2.40;;;11.30;99.90;;;;;;4995085;28;20925;-70
2024/01/26 05:33:58;;;;;;;3.60;1.93;;;11.30;99.90;;;;;;4992292;28;20838;-70
2024/01/26 05:36:24;;;;;;;2.50;1.93;;;11.40;99.90;;;;;;4998002;28;20424;-70
2024/01/26 05:38:50;;;;;;;3.37;2.37;;;11.40;99.90;;;;;;4996750;28;20675;-70
2024/01/26 05:41:15;;;;;;;5.83;2.30;;;11.40;99.90;;;;;;4991999;28;20560;-70
2024/01/26 05:43:41;;;;;;;2.80;2.00;;;11.50;99.90;;;;;;4998453;28;20275;-70
2024/01/26 05:46:06;;;;;;;3.10;2.20;;;11.50;99.90;;;;;;4994599;28;20190;-70
2024/01/26 05:48:32;;;;;;;4.33;2.17;;;11.50;99.90;;;;;;4997718;28;20185;-70
2024/01/26 05:50:58;;;;;;;3.10;2.10;;;11.40;99.90;;;;;;4992184;28;21796;-70
2024/01/26 05:53:23;;;;;;;2.63;1.90;;;11.50;99.90;;;;;;4995274;28;20202;-70
2024/01/26 05:55:49;;;;;;;2.90;2.20;;;11.50;99.90;;;;;;4993545;28;20232;-70
2024/01/26 05:58:16;;;;;;;2.80;2.23;;;11.60;99.90;;;;;;4992445;28;20181;-70
2024/01/26 06:00:42;;;;;;;2.53;2.13;;;11.40;99.90;;;;;;4998017;28;20181;-70
2024/01/26 06:03:08;;;;;;;5.90;2.20;;;11.50;99.90;;;;;;4994835;28;20428;-70
2024/01/26 06:05:33;;;;;;;4.57;2.13;;;11.50;99.90;;;;;;4996100;28;20189;-70
2024/01/26 06:07:59;;;;;;;5.83;2.20;;;11.50;99.90;;;;;;4996043;28;20193;-70
2024/01/26 06:10:25;;;;;;;4.50;2.40;;;11.60;99.90;;;;;;4997152;28;20228;-70
2024/01/26 06:12:50;;;;;;;6.70;2.47;;;11.50;99.90;;;;;;4992555;28;20189;-69
2024/01/26 06:15:16;;;;;;;5.00;2.23;;;11.50;99.90;;;;;;4994835;28;20205;-70
2024/01/26 06:17:42;;;;;;;2.90;2.10;;;11.50;99.90;;;;;;4998694;28;20205;-69
2024/01/26 06:20:08;;;;;;;3.53;2.40;;;11.50;99.90;;;;;;4997250;28;20212;-69
2024/01/26 06:22:34;;;;;;;2.90;2.27;;;11.50;99.90;;;;;;4994644;28;20436;-69
2024/01/26 06:24:59;;;;;;;3.27;2.50;;;11.40;99.90;;;;;;4996098;28;20937;-69
2024/01/26 06:27:25;;;;;;;3.43;1.93;;;11.50;99.90;;;;;;4996138;28;20213;-69
2024/01/26 06:29:50;;;;;;;5.67;2.70;;;11.40;99.90;;;;;;4994084;28;20327;-69
2024/01/26 06:32:18;;;;;;;4.47;2.77;;;11.40;99.90;;;;;;4995644;28;20189;-69
2024/01/26 06:34:45;;;;;;;4.80;2.60;;;11.40;99.90;;;;;;4991970;28;20201;-69
2024/01/26 06:37:11;;;;;;;4.33;2.30;;;11.30;99.90;;;;;;5003746;28;20494;-69
2024/01/26 06:39:37;;;;;;;3.40;2.23;;;11.30;99.90;;;;;;4994180;28;20412;-69
2024/01/26 06:42:03;;;;;;;4.70;2.17;;;11.40;99.90;;;;;;4993635;28;20315;-69
2024/01/26 06:44:28;;;;;;;6.67;2.73;;;11.40;99.90;;;;;;4993782;28;20213;-70
2024/01/26 06:46:54;;;;;;;4.70;2.70;;;11.40;99.90;;;;;;4993014;28;20440;-69
2024/01/26 06:49:20;;;;;;;4.40;2.47;;;11.40;99.90;;;;;;4997754;28;20717;-70
2024/01/26 06:51:45;;;;;;;4.87;2.70;;;11.40;99.90;;;;;;4990218;28;20177;-69
2024/01/26 06:54:11;;;;;;;4.70;2.30;;;11.40;99.90;;;;;;4997712;28;20204;-69
2024/01/26 06:56:36;;;;;;;4.20;2.57;;;11.40;99.90;;;;;;4991930;28;20189;-69
2024/01/26 06:59:02;;;;;;;3.67;2.20;;;11.40;99.90;;;;;;4998867;28;20185;-69
2024/01/26 07:01:28;;;;;;;5.77;2.47;;;11.50;99.90;;;;;;4994354;28;20189;-69
2024/01/26 07:03:53;;;;;;;4.70;2.70;;;11.50;99.90;;;;;;4993457;28;20207;-69
2024/01/26 07:06:19;;;;;;;5.10;2.30;;;11.50;99.90;;;;;;4994345;28;20196;-69
2024/01/26 07:08:45;;;;;;;8.47;2.83;;;11.50;99.90;;;;;;4992702;28;20455;-69
2024/01/26 07:11:10;;;;;;;10.53;2.73;;;11.50;99.90;;;;;;4987135;28;20194;-69
2024/01/26 07:13:36;;;;;;;4.10;1.90;;;11.50;99.90;;;;;;4986921;28;20201;-69
2024/01/26 07:16:01;;;;;;;3.50;1.97;;;11.50;99.90;;;;;;4993936;28;20247;-68
2024/01/26 07:18:27;;;;;;;3.10;2.23;;;11.40;99.90;;;;;;4995669;28;20185;-69
2024/01/26 07:20:53;;;;;;;3.23;2.33;;;11.40;99.90;;;;;;4994304;28;20336;-69
2024/01/26 07:23:18;;;;;;;3.57;2.50;;;11.50;99.90;;;;;;4999447;28;20201;-69
2024/01/26 07:25:44;;;;;;;3.13;2.20;;;11.50;99.90;;;;;;5005848;28;20627;-69
2024/01/26 07:28:09;;;;;;;4.50;2.47;;;11.40;99.90;;;;;;5008061;28;20584;-69
2024/01/26 07:30:35;;;;;;;7.27;2.50;;;11.40;99.90;;;;;;5001252;28;20668;-69
2024/01/26 07:33:00;;;;;;;4.20;2.40;;;11.50;99.90;;;;;;4998693;28;20277;-69
2024/01/26 07:35:26;;;;;;;3.20;2.43;;;11.50;99.90;;;;;;5002910;28;20183;-69
2024/01/26 07:37:52;;;;;;;5.03;2.30;;;11.60;99.90;;;;;;5001764;28;20208;-69
2024/01/26 07:40:17;;;;;;;5.23;3.37;;;11.60;99.90;;;;;;4989919;28;20205;-69
2024/01/26 07:42:43;;;;;;;4.00;2.37;;;11.50;99.90;;;;;;5013944;28;20184;-69
2024/01/26 07:45:09;;;;;;;3.20;2.37;;;11.60;99.90;;;;;;5014958;28;20201;-69
2024/01/26 07:47:37;;;;;;;2.60;2.40;;;11.60;99.90;;;;;;5013976;28;20288;-69
2024/01/26 07:50:03;;;;;;;3.40;2.33;;;11.60;99.90;;;;;;5004834;28;20492;-67
2024/01/26 07:52:29;;;;;;;3.30;2.33;;;11.50;99.90;;;;;;4997419;28;21004;-69
2024/01/26 07:54:55;;;;;;;4.30;3.10;;;11.60;99.90;;;;;;4998475;28;20629;-69
2024/01/26 07:57:21;;;;;;;5.47;2.63;;;11.70;99.90;;;;;;4999382;28;20200;-69
2024/01/26 07:59:48;;;;;;;3.47;2.80;;;11.60;99.90;;;;;;5003495;28;20603;-70
2024/01/26 08:02:17;;;;;;;2.63;2.20;;;11.60;99.90;;;;;;5010295;28;20444;-69
2024/01/26 08:04:42;;;;;;;7.00;2.30;;;11.60;99.90;;;;;;4998391;28;20466;-69
2024/01/26 08:07:08;;;;;;;7.27;3.10;;;11.60;99.90;;;;;;4996814;28;20432;-69
2024/01/26 08:09:34;;;;;;;2.80;2.10;;;11.70;99.90;;;;;;4994443;28;20814;-69
2024/01/26 08:12:00;;;;;;;5.27;3.23;;;11.70;99.90;;;;;;5002738;28;20184;-70
2024/01/26 08:14:26;;;;;;;4.87;3.20;;;11.60;99.90;;;;;;5006670;28;20459;-70
2024/01/26 08:16:51;;;;;;;4.00;2.40;;;11.70;99.90;;;;;;4996874;28;20872;-70
2024/01/26 08:19:17;;;;;;;2.93;2.13;;;11.80;99.90;;;;;;5000272;28;20652;-69
2024/01/26 08:21:42;;;;;;;7.10;3.00;;;11.80;99.90;;;;;;5001928;28;20197;-69
2024/01/26 08:24:08;;;;;;;3.23;2.23;;;11.80;99.90;;;;;;5000143;28;20216;-70
2024/01/26 08:26:34;;;;;;;5.97;3.67;;;11.80;99.90;;;;;;4999145;28;20196;-68
2024/01/26 08:29:01;;;;;;;4.30;2.60;;;11.70;99.90;;;;;;4993639;28;20468;-69
2024/01/26 08:31:27;;;;;;;4.03;2.33;;;11.70;99.90;;;;;;4996917;28;20441;-69
2024/01/26 08:33:53;;;;;;;4.47;2.87;;;11.80;99.90;;;;;;4996344;28;20452;-70
2024/01/26 08:36:19;;;;;;;5.00;2.70;;;11.80;99.90;;;;;;5001364;28;20460;-69
2024/01/26 08:38:45;;;;;;;5.97;3.03;;;11.80;99.90;;;;;;4995460;28;20915;-69
2024/01/26 08:41:11;;;;;;;5.00;2.53;;;11.70;99.90;;;;;;4995434;28;20189;-68
2024/01/26 08:43:45;;;;;;;2.80;2.20;;;11.70;99.90;;;;;;5001412;28;20215;-69
2024/01/26 08:46:11;;;;;;;5.47;2.37;;;11.70;99.90;;;;;;5001089;28;21090;-67
2024/01/26 08:48:37;;;;;;;4.27;2.97;;;11.70;99.90;;;;;;4993791;28;20439;-68
2024/01/26 08:51:03;;;;;;;6.43;2.70;;;11.70;99.90;;;;;;4994168;28;20246;-69
2024/01/26 08:53:28;;;;;;;3.00;2.47;;;11.80;99.90;;;;;;4995985;28;20545;-68
2024/01/26 08:55:54;;;;;;;4.67;3.03;;;11.80;99.90;;;;;;5000658;28;20182;-69
2024/01/26 08:58:20;;;;;;;3.67;2.90;;;11.90;99.90;;;;;;5003309;28;20184;-68
2024/01/26 09:00:45;;;;;;;4.77;2.27;;;12.00;99.90;;;;;;4991864;28;20278;-70
2024/01/26 09:03:14;;;;;;;4.70;2.93;;;12.00;99.90;;;;;;5001804;28;20546;-70
2024/01/26 09:05:40;;;;;;;3.47;2.40;;;12.00;99.90;;;;;;5001210;28;20701;-71
2024/01/26 09:08:05;;;;;;;3.77;2.90;;;12.00;99.90;;;;;;4987761;28;20538;-69
2024/01/26 09:10:31;;;;;;;4.17;3.17;;;12.00;99.90;;;;;;4996944;28;20213;-68
2024/01/26 09:12:57;;;;;;;4.47;2.70;;;12.00;99.90;;;;;;4996492;28;20185;-70
2024/01/26 09:15:22;;;;;;;6.67;2.87;;;12.00;99.90;;;;;;4998853;28;20213;-69
2024/01/26 09:17:48;;;;;;;4.30;2.90;;;12.00;99.90;;;;;;4997454;28;20185;-70
2024/01/26 09:20:14;;;;;;;5.77;3.83;;;12.10;99.90;;;;;;4998968;28;20233;-70
2024/01/26 09:22:39;;;;;;;5.10;2.60;;;12.10;99.90;;;;;;4991089;28;20190;-70
2024/01/26 09:25:05;;;;;;;4.17;2.90;;;12.10;99.90;;;;;;4991746;28;20296;-70
2024/01/26 09:27:31;;;;;;;4.03;2.17;;;12.10;99.90;;;;;;4986399;28;20292;-70
2024/01/26 09:29:57;;;;;;;4.47;2.90;;;12.10;99.90;;;;;;4990226;28;20482;-70
2024/01/26 09:32:22;;;;;;;4.93;3.27;;;12.10;99.90;;;;;;4991981;28;20181;-71
2024/01/26 09:34:48;;;;;;;4.90;3.13;;;12.10;99.90;;;;;;4992944;28;20235;-70
2024/01/26 09:37:13;;;;;;;3.63;2.70;;;12.10;99.90;;;;;;4991918;28;20189;-70
2024/01/26 09:39:39;;;;;;;3.67;2.50;;;12.20;99.90;;;;;;4991942;28;20236;-71
2024/01/26 09:42:05;;;;;;;4.53;2.83;;;12.10;99.90;;;;;;4991462;28;20221;-70
2024/01/26 09:44:31;;;;;;;4.57;2.67;;;12.20;99.90;;;;;;4994638;28;20214;-71
2024/01/26 09:46:57;;;;;;;4.40;3.00;;;12.20;99.90;;;;;;4989279;28;20921;-71
2024/01/26 09:49:27;;;;;;;5.53;2.60;;;12.30;99.90;;;;;;4996635;28;20468;-71
2024/01/26 09:51:53;;;;;;;3.70;2.50;;;12.30;99.90;;;;;;4993969;28;20559;-73
2024/01/26 09:54:20;;;;;;;5.73;2.40;;;12.30;99.90;;;;;;4994276;28;20547;-70
2024/01/26 09:56:47;;;;;;;3.53;2.43;;;12.30;99.90;;;;;;4992373;28;20351;-71
2024/01/26 09:59:13;;;;;;;5.90;2.40;;;12.30;99.90;;;;;;4994185;28;20533;-71
2024/01/26 10:01:41;;;;;;;4.17;2.97;;;12.30;99.90;;;;;;4992395;28;20449;-71
2024/01/26 10:04:08;;;;;;;5.03;3.00;;;12.30;99.90;;;;;;4991785;28;20220;-70
2024/01/26 10:06:33;;;;;;;4.93;3.37;;;12.30;99.90;;;;;;4993794;28;20810;-70
2024/01/26 10:08:59;;;;;;;3.37;2.57;;;12.40;99.90;;;;;;4988403;28;20443;-70
2024/01/26 10:11:25;;;;;;;3.83;2.57;;;12.50;99.90;;;;;;4991705;28;20700;-69
2024/01/26 10:13:51;;;;;;;3.33;1.93;;;12.60;99.90;;;;;;4995795;28;20472;-69
2024/01/26 10:16:17;;;;;;;4.23;2.00;;;12.70;99.90;;;;;;4992816;28;20204;-71
2024/01/26 10:18:44;;;;;;;6.10;2.30;;;12.70;99.90;;;;;;4994980;28;20420;-71
2024/01/26 10:21:14;;;;;;;3.70;2.30;;;12.80;99.90;;;;;;4989693;28;20246;-69
2024/01/26 10:23:40;;;;;;;5.63;2.20;;;12.80;99.90;;;;;;4994258;28;20543;-69
2024/01/26 10:26:06;;;;;;;4.70;2.60;;;12.80;99.90;;;;;;4990678;28;20559;-70
2024/01/26 10:28:32;;;;;;;4.83;2.40;;;12.80;99.90;;;;;;4997316;28;21039;-70
2024/01/26 10:30:58;;;;;;;6.00;3.53;;;12.80;99.90;;;;;;4998646;28;20220;-70
2024/01/26 10:33:24;;;;;;;4.00;2.40;;;12.80;99.90;;;;;;4990391;28;20448;-71
2024/01/26 10:35:58;;;;;;;4.17;2.40;;;12.80;99.90;;;;;;4994738;28;20193;-71
2024/01/26 10:38:24;;;;;;;3.77;2.57;;;12.80;99.90;;;;;;4997333;28;20436;-69
2024/01/26 10:40:55;;;;;;;5.17;3.30;;;12.80;99.90;;;;;;4995985;28;20412;-70
2024/01/26 10:43:21;;;;;;;4.27;2.40;;;12.80;99.90;;;;;;4988528;28;20499;-70
2024/01/26 10:45:48;;;;;;;2.80;2.30;;;12.90;99.90;;;;;;4992352;28;20463;-70
2024/01/26 10:48:15;;;;;;;3.30;1.80;;;13.00;99.90;;;;;;4992577;28;20489;-69
2024/01/26 10:50:41;;;;;;;2.97;2.37;;;12.90;99.90;;;;;;5006554;28;20496;-69
2024/01/26 10:53:07;;;;;;;3.50;2.57;;;12.80;99.90;;;;;;4990667;28;20911;-69
2024/01/26 10:55:35;;;;;;;3.53;2.43;;;12.80;99.90;;;;;;4988642;28;20196;-70
2024/01/26 10:58:02;;;;;;;3.60;2.40;;;12.70;99.90;;;;;;4994154;28;20461;-69
2024/01/26 11:00:28;;;;;;;3.20;2.20;;;12.70;99.90;;;;;;4986405;28;20810;-69
2024/01/26 11:02:54;;;;;;;2.53;2.00;;;12.70;99.90;;;;;;4993493;28;20439;-69
2024/01/26 11:05:20;;;;;;;2.97;2.57;;;12.60;99.90;;;;;;4989672;28;20223;-70
2024/01/26 11:07:47;;;;;;;4.33;2.60;;;12.60;99.90;;;;;;4992294;28;20449;-71
2024/01/26 11:10:27;;;;;;;3.07;2.10;;;12.50;99.90;;;;;;4993261;28;20223;-71
2024/01/26 11:13:05;;;;;;;3.67;2.60;;;12.50;99.90;;;;;;4988154;28;20533;-71
2024/01/26 11:15:32;;;;;;;7.00;3.23;;;12.30;99.90;;;;;;4992556;28;20974;-70
2024/01/26 11:17:58;;;;;;;4.37;2.47;;;12.40;99.90;;;;;;4989194;28;20416;-71
2024/01/26 11:20:31;;;;;;;3.40;2.53;;;12.30;99.90;;;;;;4989279;28;20851;-71
2024/01/26 11:23:06;;;;;;;8.00;2.80;;;12.30;99.90;;;;;;4995230;28;20463;-70
2024/01/26 11:25:40;;;;;;;4.63;2.87;;;12.30;99.90;;;;;;4992202;28;21378;-72
2024/01/26 11:28:07;;;;;;;5.40;2.37;;;12.30;99.90;;;;;;4989046;28;20452;-68
2024/01/26 11:30:34;;;;;;;8.77;3.27;;;12.20;99.90;;;;;;4985465;28;21000;-71
2024/01/26 11:33:00;;;;;;;4.27;2.43;;;12.20;99.90;;;;;;4990949;28;20482;-70
2024/01/26 11:35:26;;;;;;;4.47;2.83;;;12.20;99.90;;;;;;4990364;28;20447;-70
2024/01/26 11:37:54;;;;;;;4.43;2.97;;;12.10;99.90;;;;;;4995352;28;20424;-72
2024/01/26 11:40:21;;;;;;;3.20;2.50;;;12.20;99.90;;;;;;4989531;28;20430;-71
2024/01/26 11:42:48;;;;;;;3.90;2.80;;;12.10;99.90;;;;;;4998099;28;20474;-71
2024/01/26 11:45:38;;;;;;;5.20;3.60;;;12.00;99.90;;;;;;4994497;28;20447;-71
2024/01/26 11:48:08;;;;;;;4.93;3.00;;;12.00;99.90;;;;;;4995902;28;20562;-71
2024/01/26 11:50:34;;;;;;;3.80;3.10;;;12.00;99.90;;;;;;4991873;28;20482;-71
2024/01/26 11:53:00;;;;;;;4.73;3.00;;;12.10;99.90;;;;;;4997760;28;20672;-69
2024/01/26 11:55:26;;;;;;;4.83;3.10;;;11.90;99.90;;;;;;4994978;28;20490;-72
2024/01/26 11:57:51;;;;;;;6.07;3.33;;;11.90;99.90;;;;;;4997374;28;20263;-71
2024/01/26 12:00:18;;;;;;;4.20;3.20;;;11.80;99.90;;;;;;4989920;28;20443;-69
2024/01/26 12:02:44;;;;;;;4.47;3.37;;;11.80;99.90;;;;;;4992050;28;20192;-69
2024/01/26 12:05:13;;;;;;;5.73;3.23;;;11.70;99.90;;;;;;4992785;28;20487;-70
2024/01/26 12:07:39;;;;;;;5.07;3.20;;;11.70;99.90;;;;;;4989988;28;20190;-68
2024/01/26 12:10:07;;;;;;;5.67;3.60;;;11.60;99.90;;;;;;4994613;28;21205;-70
2024/01/26 12:12:33;;;;;;;7.10;3.57;;;11.60;99.90;;;;;;4989696;28;21044;-68
2024/01/26 12:15:00;;;;;;;5.77;4.03;;;11.60;99.90;;;;;;4992912;28;20459;-68
2024/01/26 12:17:27;;;;;;;4.93;3.80;;;11.60;99.90;;;;;;4996123;28;20252;-68
2024/01/26 12:19:54;;;;;;;5.43;3.47;;;11.60;99.90;;;;;;5003441;28;20443;-69
2024/01/26 12:22:22;;;;;;;6.10;3.20;;;11.50;99.90;;;;;;4999098;28;20422;-69
2024/01/26 12:24:50;;;;;;;4.20;3.60;;;11.50;99.90;;;;;;4997354;28;20462;-68
2024/01/26 12:27:16;;;;;;;4.53;3.80;;;11.50;99.90;;;;;;4991881;28;20463;-71
2024/01/26 12:29:44;;;;;;;4.10;3.67;;;11.40;99.90;;;;;;4991404;28;20541;-70
2024/01/26 12:32:12;;;;;;;6.73;4.23;;;11.30;99.90;;;;;;4996522;28;20832;-70
2024/01/26 12:34:38;;;;;;;5.63;3.80;;;11.40;99.90;;;;;;4993931;28;20449;-70
2024/01/26 12:37:10;;;;;;;5.00;3.90;;;11.40;99.90;;;;;;4994014;28;20431;-70
2024/01/26 12:39:36;;;;;;;5.80;3.20;;;11.50;99.90;;;;;;4991314;28;20189;-71